Carbury, North Dakota
Current Conditions -  °F | °C
As of 3:58 AM on Tuesday 27 Jan 2015 (Local Time) from KMIB Reporting Station
Clear Clear  
Wind Chill: 21°   Ceiling: Unl
Heat Index: 28°   Visibility: 10mi
Dew Point: 28°   Wind: 7mph
Humidity: 100%   Direction: 150°SSE
Pressure: 29.86"   Gusts: NA
Location:  48.9505°N, 100.734°W
Report Text: KMIB 270958Z AUTO 15006KT 10SM CLR M02/M02 A2986 RMK AO2 SLP134 T10231023 $
Loading
Personal Weather Stations






























Interactive Weather Map New forecast layout! Learn more

10-Day Weather Forecast

Advertisements
Track Severe Weather on mobile